createdAt,value
2022-12-18T00:01:19.937Z,-11.08
2022-12-18T00:03:47.537Z,-11.10
2022-12-18T00:06:14.810Z,-11.21
2022-12-18T00:08:42.824Z,-11.17
2022-12-18T00:11:12.919Z,-11.19
2022-12-18T00:13:40.080Z,-11.07
2022-12-18T00:16:11.144Z,-10.81
2022-12-18T00:18:38.305Z,-10.93
2022-12-18T00:21:07.786Z,-10.99
2022-12-18T00:23:35.937Z,-10.85
2022-12-18T00:26:05.259Z,-10.85
2022-12-18T00:28:31.941Z,-10.78
2022-12-18T00:31:06.601Z,-10.74
2022-12-18T00:33:33.306Z,-10.74
2022-12-18T00:36:04.272Z,-10.88
2022-12-18T00:38:31.014Z,-11.00
2022-12-18T00:40:57.830Z,-11.03
2022-12-18T00:43:24.422Z,-11.10
2022-12-18T00:45:51.554Z,-11.10
2022-12-18T00:48:18.112Z,-11.15
2022-12-18T00:50:44.984Z,-11.13
2022-12-18T00:53:11.866Z,-11.16
2022-12-18T00:55:40.175Z,-11.22
2022-12-18T00:58:06.653Z,-11.11
2022-12-18T01:00:33.416Z,-10.97
2022-12-18T01:03:00.048Z,-10.91
2022-12-18T01:05:26.911Z,-10.93
2022-12-18T01:07:53.333Z,-11.00
2022-12-18T01:10:20.344Z,-11.08
2022-12-18T01:12:46.873Z,-11.14
2022-12-18T01:15:15.387Z,-11.18
2022-12-18T01:17:41.973Z,-11.21
2022-12-18T01:20:09.520Z,-11.29
2022-12-18T01:22:36.784Z,-11.25
2022-12-18T01:25:05.029Z,-11.21
2022-12-18T01:27:34.255Z,-10.98
2022-12-18T01:30:00.965Z,-11.00
2022-12-18T01:32:27.562Z,-11.03
2022-12-18T01:34:56.825Z,-11.11
2022-12-18T01:37:23.572Z,-11.09
2022-12-18T01:39:50.956Z,-11.02
2022-12-18T01:42:17.694Z,-10.96
2022-12-18T01:44:47.156Z,-11.02
2022-12-18T01:47:25.183Z,-11.05
2022-12-18T01:49:52.363Z,-11.07
2022-12-18T01:52:21.104Z,-11.04
2022-12-18T01:54:49.690Z,-11.02
2022-12-18T01:57:16.442Z,-11.02
2022-12-18T01:59:46.239Z,-11.03
2022-12-18T02:02:13.133Z,-11.06
2022-12-18T02:04:47.808Z,-11.01
2022-12-18T02:07:24.826Z,-10.98
2022-12-18T02:10:25.332Z,-11.08
2022-12-18T02:13:22.544Z,-11.14
2022-12-18T02:16:07.745Z,-11.31
2022-12-18T02:18:39.192Z,-11.43
2022-12-18T02:21:21.736Z,-11.34
2022-12-18T02:23:57.658Z,-11.17
2022-12-18T02:26:24.655Z,-11.14
2022-12-18T02:29:06.943Z,-11.09
2022-12-18T02:31:41.189Z,-10.98
2022-12-18T02:34:09.448Z,-11.02
2022-12-18T02:36:37.824Z,-11.06
2022-12-18T02:39:07.369Z,-11.09
2022-12-18T02:41:37.635Z,-11.09
2022-12-18T02:44:10.025Z,-10.99
2022-12-18T02:46:41.039Z,-10.89
2022-12-18T02:49:34.367Z,-11.08
2022-12-18T02:52:09.603Z,-10.97
2022-12-18T02:54:58.792Z,-10.78
2022-12-18T02:57:29.936Z,-10.63
2022-12-18T03:00:08.921Z,-10.43
2022-12-18T03:02:55.703Z,-10.40
2022-12-18T03:05:30.199Z,-10.44
2022-12-18T03:08:02.702Z,-10.46
2022-12-18T03:10:33.370Z,-10.50
2022-12-18T03:13:10.470Z,-10.68
2022-12-18T03:15:42.934Z,-10.64
2022-12-18T03:18:18.975Z,-10.57
2022-12-18T03:20:49.187Z,-10.59
2022-12-18T03:23:25.957Z,-10.70
2022-12-18T03:25:57.662Z,-10.69
2022-12-18T03:28:24.865Z,-10.77
2022-12-18T03:30:58.588Z,-10.76
2022-12-18T03:33:29.300Z,-10.83
2022-12-18T03:35:56.262Z,-10.73
2022-12-18T03:38:22.878Z,-10.67
2022-12-18T03:40:57.404Z,-10.63
2022-12-18T03:43:33.198Z,-10.63
2022-12-18T03:46:15.560Z,-10.61
2022-12-18T03:49:07.959Z,-10.90
2022-12-18T03:51:50.083Z,-11.02
2022-12-18T03:54:18.570Z,-11.04
2022-12-18T03:56:52.462Z,-11.12
2022-12-18T03:59:20.455Z,-11.21
2022-12-18T04:01:50.333Z,-11.32
2022-12-18T04:04:19.742Z,-11.21
2022-12-18T04:06:48.956Z,-11.13
2022-12-18T04:09:16.012Z,-10.98
2022-12-18T04:11:44.744Z,-10.68
2022-12-18T04:14:17.528Z,-10.37
2022-12-18T04:16:44.588Z,-10.12
2022-12-18T04:19:11.139Z,-10.14
2022-12-18T04:21:38.041Z,-9.98
2022-12-18T04:24:04.592Z,-9.80
2022-12-18T04:26:31.188Z,-9.61
2022-12-18T04:28:57.676Z,-9.63
2022-12-18T04:31:24.288Z,-9.68
2022-12-18T04:33:50.968Z,-9.72
2022-12-18T04:36:17.694Z,-9.73
2022-12-18T04:38:44.142Z,-9.60
2022-12-18T04:41:10.738Z,-9.36
2022-12-18T04:43:37.466Z,-9.13
2022-12-18T04:46:08.403Z,-9.01
2022-12-18T04:48:36.183Z,-8.91
2022-12-18T04:51:02.891Z,-8.81
2022-12-18T04:53:29.523Z,-8.75
2022-12-18T04:56:11.813Z,-8.80
2022-12-18T04:58:40.101Z,-8.80
2022-12-18T05:01:08.331Z,-8.72
2022-12-18T05:03:35.565Z,-8.75
2022-12-18T05:06:02.257Z,-8.79
2022-12-18T05:08:28.767Z,-8.81
2022-12-18T05:11:11.161Z,-8.82
2022-12-18T05:13:39.188Z,-8.83
2022-12-18T05:16:06.719Z,-8.67
2022-12-18T05:18:33.659Z,-8.65
2022-12-18T05:21:00.128Z,-8.59
2022-12-18T05:23:26.845Z,-8.69
2022-12-18T05:26:01.806Z,-8.68
2022-12-18T05:28:30.776Z,-8.73
2022-12-18T05:31:00.716Z,-8.78
2022-12-18T05:33:30.501Z,-8.81
2022-12-18T05:35:59.349Z,-8.83
2022-12-18T05:38:28.179Z,-8.86
2022-12-18T05:40:55.514Z,-8.92
2022-12-18T05:43:22.824Z,-8.91
2022-12-18T05:45:49.963Z,-8.90
2022-12-18T05:48:17.236Z,-8.86
2022-12-18T05:50:48.680Z,-8.82
2022-12-18T05:53:17.964Z,-8.75
2022-12-18T05:55:45.140Z,-8.71
2022-12-18T05:58:13.535Z,-8.58
2022-12-18T06:00:44.079Z,-8.54
2022-12-18T06:03:11.868Z,-8.52
2022-12-18T06:05:40.696Z,-8.41
2022-12-18T06:08:07.507Z,-8.39
2022-12-18T06:10:34.068Z,-8.42
2022-12-18T06:13:01.342Z,-8.32
2022-12-18T06:15:28.077Z,-8.22
2022-12-18T06:17:54.605Z,-7.99
2022-12-18T06:20:21.230Z,-7.98
2022-12-18T06:22:47.769Z,-8.02
2022-12-18T06:25:14.512Z,-8.01
2022-12-18T06:27:41.131Z,-7.90
2022-12-18T06:30:09.626Z,-7.94
2022-12-18T06:32:36.209Z,-7.88
2022-12-18T06:35:02.754Z,-7.82
2022-12-18T06:37:29.323Z,-7.61
2022-12-18T06:39:57.505Z,-7.58
2022-12-18T06:42:24.835Z,-7.63
2022-12-18T06:44:52.578Z,-7.43
2022-12-18T06:47:19.651Z,-7.29
2022-12-18T06:49:46.182Z,-7.09
2022-12-18T06:52:12.638Z,-7.08
2022-12-18T06:54:39.133Z,-7.03
2022-12-18T06:57:05.631Z,-7.04
2022-12-18T06:59:32.293Z,-7.20
2022-12-18T07:01:58.854Z,-7.17
2022-12-18T07:04:31.375Z,-7.42
2022-12-18T07:06:58.442Z,-7.49
2022-12-18T07:09:25.680Z,-7.40
2022-12-18T07:11:53.431Z,-7.42
2022-12-18T07:14:20.259Z,-7.51
2022-12-18T07:16:46.803Z,-7.40
2022-12-18T07:19:13.414Z,-7.39
2022-12-18T07:21:39.852Z,-7.31
2022-12-18T07:24:06.924Z,-7.16
2022-12-18T07:26:33.667Z,-7.19
2022-12-18T07:29:00.157Z,-7.20
2022-12-18T07:31:27.686Z,-7.22
2022-12-18T07:33:54.566Z,-7.16
2022-12-18T07:36:24.235Z,-7.09
2022-12-18T07:38:52.426Z,-7.03
2022-12-18T07:41:19.621Z,-6.95
2022-12-18T07:43:46.523Z,-6.88
2022-12-18T07:46:15.138Z,-6.65
2022-12-18T07:48:42.804Z,-6.52
2022-12-18T07:51:13.447Z,-6.47
2022-12-18T07:53:40.567Z,-6.30
2022-12-18T07:56:27.694Z,-6.29
2022-12-18T07:58:55.929Z,-6.22
2022-12-18T08:01:22.495Z,-6.23
2022-12-18T08:03:49.497Z,-6.18
2022-12-18T08:06:18.358Z,-6.03
2022-12-18T08:08:45.046Z,-6.05
2022-12-18T08:11:11.509Z,-6.07
2022-12-18T08:13:38.447Z,-5.99
2022-12-18T08:16:08.772Z,-5.72
2022-12-18T08:18:37.450Z,-5.64
2022-12-18T08:21:25.387Z,-5.53
2022-12-18T08:23:53.553Z,-5.48
2022-12-18T08:26:21.103Z,-5.59
2022-12-18T08:28:49.326Z,-5.56
2022-12-18T08:31:17.133Z,-5.46
2022-12-18T08:33:44.054Z,-5.58
2022-12-18T08:36:11.060Z,-5.35
2022-12-18T08:38:37.810Z,-5.19
2022-12-18T08:41:08.285Z,-5.15
2022-12-18T08:43:53.300Z,-5.24
2022-12-18T08:46:21.301Z,-5.36
2022-12-18T08:48:48.293Z,-5.20
2022-12-18T08:51:18.043Z,-4.91
2022-12-18T08:53:45.606Z,-4.92
2022-12-18T08:56:13.132Z,-5.10
2022-12-18T08:58:39.902Z,-5.14
2022-12-18T09:01:10.228Z,-5.02
2022-12-18T09:03:37.783Z,-4.81
2022-12-18T09:06:05.650Z,-4.90
2022-12-18T09:08:35.674Z,-4.85
2022-12-18T09:11:02.098Z,-4.55
2022-12-18T09:13:28.769Z,-4.37
2022-12-18T09:15:56.633Z,-4.18
2022-12-18T09:18:24.448Z,-4.24
2022-12-18T09:20:55.072Z,-4.23
2022-12-18T09:23:22.360Z,-4.20
2022-12-18T09:25:49.253Z,-4.26
2022-12-18T09:28:17.831Z,-4.36
2022-12-18T09:30:47.888Z,-4.26
2022-12-18T09:33:14.701Z,-3.93
2022-12-18T09:35:43.299Z,-3.87
2022-12-18T09:38:13.873Z,-3.98
2022-12-18T09:40:53.419Z,-3.83
2022-12-18T09:43:25.707Z,-3.82
2022-12-18T09:45:58.136Z,-3.70
2022-12-18T09:48:29.453Z,-3.75
2022-12-18T09:51:03.281Z,-3.69
2022-12-18T09:53:36.112Z,-3.61
2022-12-18T09:56:05.665Z,-3.68
2022-12-18T09:58:43.218Z,-3.31
2022-12-18T10:01:15.573Z,-3.27
2022-12-18T10:03:42.020Z,-3.11
2022-12-18T10:06:27.180Z,-2.86
2022-12-18T10:09:19.824Z,-2.81
2022-12-18T10:12:07.823Z,-2.87
2022-12-18T10:15:03.723Z,-2.68
2022-12-18T10:17:52.510Z,-2.76
2022-12-18T10:20:26.859Z,-2.77
2022-12-18T10:23:03.261Z,-2.80
2022-12-18T10:25:56.528Z,-2.83
2022-12-18T10:28:25.245Z,-2.87
2022-12-18T10:30:51.761Z,-2.69
2022-12-18T10:33:29.088Z,-2.75
2022-12-18T10:35:56.238Z,-2.93
2022-12-18T10:38:24.067Z,-3.00
2022-12-18T10:40:57.022Z,-2.99
2022-12-18T10:43:25.270Z,-2.90
2022-12-18T10:46:24.434Z,-2.89
2022-12-18T10:48:56.478Z,-2.97
2022-12-18T10:51:31.390Z,-2.95
2022-12-18T10:54:06.247Z,-2.82
2022-12-18T10:56:35.882Z,-2.75
2022-12-18T10:59:14.490Z,-2.65
2022-12-18T11:01:59.633Z,-2.65
2022-12-18T11:04:32.586Z,-2.46
2022-12-18T11:07:00.936Z,-2.41
2022-12-18T11:09:33.198Z,-2.36
2022-12-18T11:12:03.476Z,-2.51
2022-12-18T11:14:46.516Z,-2.34
2022-12-18T11:17:31.685Z,-2.26
2022-12-18T11:20:00.912Z,-2.35
2022-12-18T11:22:30.131Z,-2.33
2022-12-18T11:25:32.517Z,-2.34
2022-12-18T11:28:01.456Z,-2.14
2022-12-18T11:30:28.472Z,-2.06
2022-12-18T11:33:20.442Z,-1.98
2022-12-18T11:35:49.964Z,-2.02
2022-12-18T11:38:29.594Z,-1.93
2022-12-18T11:41:44.885Z,-1.89
2022-12-18T11:44:16.796Z,-1.87
2022-12-18T11:46:52.696Z,-1.75
2022-12-18T11:49:36.308Z,-1.60
2022-12-18T11:52:26.277Z,-1.51
2022-12-18T11:54:54.425Z,-1.43
2022-12-18T11:57:38.734Z,-1.38
2022-12-18T12:00:13.644Z,-1.48
2022-12-18T12:02:59.251Z,-1.63
2022-12-18T12:05:51.114Z,-1.67
2022-12-18T12:08:54.434Z,-1.65
2022-12-18T12:11:48.945Z,-1.82
2022-12-18T12:14:51.146Z,-1.77
2022-12-18T12:17:29.882Z,-1.65
2022-12-18T12:20:08.171Z,-1.68
2022-12-18T12:22:47.122Z,-1.61
2022-12-18T12:25:30.455Z,-1.45
2022-12-18T12:28:21.692Z,-1.40
2022-12-18T12:31:17.233Z,-1.30
2022-12-18T12:34:14.921Z,-1.34
2022-12-18T12:37:16.053Z,-1.32
2022-12-18T12:39:46.743Z,-1.26
2022-12-18T12:42:43.397Z,-1.22
2022-12-18T12:45:36.719Z,-1.18
2022-12-18T12:48:12.389Z,-1.13
2022-12-18T12:50:43.085Z,-1.22
2022-12-18T12:53:23.747Z,-1.29
2022-12-18T12:55:54.388Z,-1.26
2022-12-18T12:58:36.943Z,-1.10
2022-12-18T13:01:42.371Z,-1.20
2022-12-18T13:04:46.942Z,-1.11
2022-12-18T13:07:38.506Z,-1.19
2022-12-18T13:10:39.736Z,-1.09
2022-12-18T13:13:20.616Z,-1.22
2022-12-18T13:16:09.293Z,-1.26
2022-12-18T13:19:03.928Z,-1.33
2022-12-18T13:21:34.355Z,-1.31
2022-12-18T13:24:27.593Z,-1.34
2022-12-18T13:26:55.088Z,-1.36
2022-12-18T13:30:02.566Z,-1.38
2022-12-18T13:32:29.319Z,-1.52
2022-12-18T13:35:54.854Z,-1.58
2022-12-18T13:38:25.156Z,-1.57
2022-12-18T13:40:51.787Z,-1.54
2022-12-18T13:43:21.623Z,-1.61
2022-12-18T13:46:02.363Z,-1.59
2022-12-18T13:48:33.159Z,-1.53
2022-12-18T13:54:07.475Z,-1.40
2022-12-18T13:56:35.510Z,-1.52
2022-12-18T13:59:19.318Z,-1.51
2022-12-18T14:01:58.432Z,-1.56
2022-12-18T14:04:32.761Z,-1.67
2022-12-18T14:07:13.708Z,-1.70
2022-12-18T14:09:47.328Z,-1.76
2022-12-18T14:12:48.173Z,-1.73
2022-12-18T14:15:27.336Z,-1.71
2022-12-18T14:18:00.886Z,-1.70
2022-12-18T14:20:32.120Z,-1.87
2022-12-18T14:23:02.467Z,-1.89
2022-12-18T14:25:31.048Z,-1.86
2022-12-18T14:28:15.437Z,-1.91
2022-12-18T14:30:44.662Z,-1.88
2022-12-18T14:33:16.588Z,-1.88
2022-12-18T14:35:53.461Z,-1.87
2022-12-18T14:38:33.844Z,-1.83
2022-12-18T14:41:14.008Z,-1.89
2022-12-18T14:43:43.041Z,-1.92
2022-12-18T14:46:30.137Z,-1.94
2022-12-18T14:49:00.934Z,-2.04
2022-12-18T14:51:32.289Z,-2.08
2022-12-18T14:54:02.011Z,-2.10
2022-12-18T14:56:35.113Z,-2.11
2022-12-18T14:59:16.035Z,-2.21
2022-12-18T15:01:59.223Z,-2.18
2022-12-18T15:04:32.723Z,-2.20
2022-12-18T15:07:10.842Z,-2.29
2022-12-18T15:09:41.012Z,-2.41
2022-12-18T15:12:33.060Z,-2.51
2022-12-18T15:14:59.772Z,-2.56
2022-12-18T15:17:26.951Z,-2.57
2022-12-18T15:20:04.506Z,-2.61
2022-12-18T15:22:37.032Z,-2.63
2022-12-18T15:25:32.276Z,-2.62
2022-12-18T15:28:02.046Z,-2.71
2022-12-18T15:30:32.463Z,-2.83
2022-12-18T15:33:24.204Z,-2.84
2022-12-18T15:36:00.948Z,-2.92
2022-12-18T15:38:35.800Z,-2.96
2022-12-18T15:41:03.652Z,-2.94
2022-12-18T15:43:39.600Z,-2.88
2022-12-18T15:46:12.361Z,-2.85
2022-12-18T15:48:48.093Z,-2.86
2022-12-18T15:51:30.883Z,-2.85
2022-12-18T15:54:01.153Z,-2.97
2022-12-18T15:56:47.524Z,-3.02
2022-12-18T15:59:17.653Z,-3.01
2022-12-18T16:01:50.178Z,-3.01
2022-12-18T16:04:21.289Z,-3.02
2022-12-18T16:07:13.987Z,-3.06
2022-12-18T16:09:40.670Z,-2.97
2022-12-18T16:12:16.897Z,-3.07
2022-12-18T16:14:46.459Z,-3.06
2022-12-18T16:17:14.745Z,-3.12
2022-12-18T16:19:45.409Z,-3.13
2022-12-18T16:22:40.987Z,-3.12
2022-12-18T16:25:17.615Z,-3.13
2022-12-18T16:27:44.487Z,-3.09
2022-12-18T16:30:17.571Z,-3.17
2022-12-18T16:32:44.778Z,-3.25
2022-12-18T16:35:16.450Z,-3.25
2022-12-18T16:37:43.848Z,-3.22
2022-12-18T16:40:18.474Z,-3.20
2022-12-18T16:42:47.170Z,-3.29
2022-12-18T16:45:19.920Z,-3.38
2022-12-18T16:47:46.861Z,-3.36
2022-12-18T16:50:14.034Z,-3.38
2022-12-18T16:52:41.305Z,-3.38
2022-12-18T16:55:09.309Z,-3.41
2022-12-18T16:57:36.286Z,-3.41
2022-12-18T17:00:05.842Z,-3.34
2022-12-18T17:02:36.223Z,-3.35
2022-12-18T17:05:05.499Z,-3.31
2022-12-18T17:07:32.147Z,-3.27
2022-12-18T17:09:58.966Z,-3.30
2022-12-18T17:12:26.953Z,-3.27
2022-12-18T17:14:56.709Z,-3.30
2022-12-18T17:17:26.276Z,-3.29
2022-12-18T17:19:53.179Z,-3.32
2022-12-18T17:22:24.108Z,-3.38
2022-12-18T17:24:55.977Z,-3.42
2022-12-18T17:27:22.711Z,-3.41
2022-12-18T17:29:49.955Z,-3.51
2022-12-18T17:32:18.530Z,-3.44
2022-12-18T17:34:48.364Z,-3.55
2022-12-18T17:37:15.527Z,-3.52
2022-12-18T17:39:42.603Z,-3.46
2022-12-18T17:42:15.368Z,-3.49
2022-12-18T17:44:45.307Z,-3.56
2022-12-18T17:47:14.145Z,-3.56
2022-12-18T17:49:43.927Z,-3.59
2022-12-18T17:52:13.750Z,-3.66
2022-12-18T17:54:42.165Z,-3.57
2022-12-18T17:57:08.972Z,-3.57
2022-12-18T17:59:35.699Z,-3.65
2022-12-18T18:02:03.216Z,-3.71
2022-12-18T18:04:29.980Z,-3.69
2022-12-18T18:06:57.157Z,-3.84
2022-12-18T18:09:28.746Z,-3.78
2022-12-18T18:12:13.858Z,-3.73
2022-12-18T18:14:42.001Z,-3.71
2022-12-18T18:17:11.620Z,-3.71
2022-12-18T18:19:38.290Z,-3.66
2022-12-18T18:22:06.414Z,-3.62
2022-12-18T18:24:34.083Z,-3.74
2022-12-18T18:27:03.939Z,-3.71
2022-12-18T18:29:32.000Z,-3.64
2022-12-18T18:31:59.425Z,-3.53
2022-12-18T18:34:28.933Z,-3.66
2022-12-18T18:37:03.299Z,-3.55
2022-12-18T18:39:30.006Z,-3.58
2022-12-18T18:41:56.834Z,-3.59
2022-12-18T18:44:26.337Z,-3.65
2022-12-18T18:46:57.430Z,-3.59
2022-12-18T18:49:27.750Z,-3.56
2022-12-18T18:51:56.383Z,-3.61
2022-12-18T18:54:23.478Z,-3.57
2022-12-18T18:59:43.319Z,-3.66
2022-12-18T19:02:14.567Z,-3.64
2022-12-18T19:04:45.801Z,-3.67
2022-12-18T19:07:14.567Z,-3.69
2022-12-18T19:09:52.108Z,-3.64
2022-12-18T19:12:39.947Z,-3.43
2022-12-18T19:15:07.702Z,-3.50
2022-12-18T19:17:34.463Z,-3.51
2022-12-18T19:20:06.499Z,-3.49
2022-12-18T19:22:35.023Z,-3.53
2022-12-18T19:25:02.155Z,-3.46
2022-12-18T19:27:29.010Z,-3.54
2022-12-18T19:29:55.701Z,-3.59
2022-12-18T19:32:22.396Z,-3.52
2022-12-18T19:34:49.390Z,-3.46
2022-12-18T19:37:19.848Z,-3.52
2022-12-18T19:39:46.432Z,-3.57
2022-12-18T19:42:13.185Z,-3.65
2022-12-18T19:44:40.054Z,-3.66
2022-12-18T19:47:07.005Z,-3.71
2022-12-18T19:49:33.876Z,-3.67
2022-12-18T19:52:01.114Z,-3.64
2022-12-18T19:54:27.720Z,-3.56
2022-12-18T19:56:54.896Z,-3.54
2022-12-18T19:59:23.580Z,-3.54
2022-12-18T20:01:50.684Z,-3.49
2022-12-18T20:04:17.787Z,-3.53
2022-12-18T20:06:51.965Z,-3.57
2022-12-18T20:09:19.663Z,-3.53
2022-12-18T20:11:48.596Z,-3.58
2022-12-18T20:14:22.716Z,-3.56
2022-12-18T20:16:51.107Z,-3.46
2022-12-18T20:19:18.732Z,-3.49
2022-12-18T20:21:45.949Z,-3.56
2022-12-18T20:24:13.884Z,-3.52
2022-12-18T20:26:43.180Z,-3.55
2022-12-18T20:29:10.140Z,-3.57
2022-12-18T20:31:37.027Z,-3.50
2022-12-18T20:34:07.154Z,-3.49
2022-12-18T20:36:37.645Z,-3.38
2022-12-18T20:39:07.666Z,-3.45
2022-12-18T20:41:40.206Z,-3.45
2022-12-18T20:44:22.860Z,-3.33
2022-12-18T20:46:52.917Z,-3.41
2022-12-18T20:49:23.211Z,-3.36
2022-12-18T20:51:52.072Z,-3.36
2022-12-18T20:54:26.462Z,-3.27
2022-12-18T20:56:53.284Z,-3.29
2022-12-18T20:59:22.108Z,-3.26
2022-12-18T21:01:50.048Z,-3.29
2022-12-18T21:04:19.258Z,-3.40
2022-12-18T21:06:53.338Z,-3.30
2022-12-18T21:09:28.045Z,-3.31
2022-12-18T21:12:19.402Z,-3.33
2022-12-18T21:14:46.370Z,-3.28
2022-12-18T21:17:14.613Z,-3.30
2022-12-18T21:19:41.654Z,-3.29
2022-12-18T21:22:14.089Z,-3.22
2022-12-18T21:24:41.458Z,-3.19
2022-12-18T21:27:16.437Z,-3.28
2022-12-18T21:29:44.751Z,-3.27
2022-12-18T21:32:14.208Z,-3.25
2022-12-18T21:34:46.024Z,-3.24
2022-12-18T21:37:14.474Z,-3.23
2022-12-18T21:39:43.977Z,-3.23
2022-12-18T21:42:32.117Z,-3.26
2022-12-18T21:44:58.944Z,-3.23
2022-12-18T21:47:25.723Z,-3.14
2022-12-18T21:49:53.373Z,-3.10
2022-12-18T21:52:27.266Z,-3.21
2022-12-18T21:55:07.970Z,-3.13
2022-12-18T21:57:35.865Z,-3.18
2022-12-18T22:00:03.774Z,-3.17
2022-12-18T22:02:30.835Z,-3.11
2022-12-18T22:04:57.669Z,-3.04
2022-12-18T22:07:24.383Z,-3.13
2022-12-18T22:09:51.190Z,-3.13
2022-12-18T22:12:36.422Z,-3.27
2022-12-18T22:15:11.131Z,-3.30
2022-12-18T22:17:40.742Z,-3.30
2022-12-18T22:20:09.603Z,-3.25
2022-12-18T22:22:36.152Z,-3.16
2022-12-18T22:25:04.142Z,-3.19
2022-12-18T22:27:36.701Z,-3.19
2022-12-18T22:30:05.277Z,-3.21
2022-12-18T22:32:36.489Z,-3.17
2022-12-18T22:35:10.362Z,-3.23
2022-12-18T22:37:40.857Z,-3.14
2022-12-18T22:40:11.095Z,-3.33
2022-12-18T22:42:39.538Z,-3.28
2022-12-18T22:45:06.531Z,-3.24
2022-12-18T22:47:33.079Z,-3.27
2022-12-18T22:49:59.901Z,-3.19
2022-12-18T22:52:26.620Z,-3.06
2022-12-18T22:54:55.803Z,-3.16
2022-12-18T22:57:23.806Z,-3.10
2022-12-18T22:59:54.121Z,-3.08
2022-12-18T23:02:20.906Z,-3.17
2022-12-18T23:04:48.088Z,-3.31
2022-12-18T23:07:15.625Z,-3.38
2022-12-18T23:09:44.696Z,-3.36
2022-12-18T23:12:19.119Z,-3.36
2022-12-18T23:14:50.077Z,-3.34
2022-12-18T23:17:19.381Z,-3.51
2022-12-18T23:19:49.199Z,-3.59
2022-12-18T23:22:17.516Z,-3.49
2022-12-18T23:24:44.300Z,-3.36
2022-12-18T23:27:11.897Z,-3.23
2022-12-18T23:29:39.952Z,-3.02
2022-12-18T23:32:07.176Z,-3.02
2022-12-18T23:34:33.794Z,-3.08
2022-12-18T23:37:01.143Z,-3.08
2022-12-18T23:39:30.526Z,-3.01
2022-12-18T23:42:00.994Z,-2.96
2022-12-18T23:44:28.558Z,-3.01
2022-12-18T23:46:55.564Z,-2.94
2022-12-18T23:49:22.931Z,-2.96
2022-12-18T23:51:50.128Z,-3.07
2022-12-18T23:54:21.103Z,-3.15
2022-12-18T23:56:54.220Z,-3.07
2022-12-18T23:59:25.297Z,-3.05
